sensor_id;sensor_type;location;lat;lon;timestamp;pressure;altitude;pressure_sealevel;temperature;humidity
53246;BME280;39569;51.090;-1.786;2023-12-29T00:00:11;100061.97;;;19.93;38.89
53246;BME280;39569;51.090;-1.786;2023-12-29T00:02:38;100058.34;;;18.55;41.46
53246;BME280;39569;51.090;-1.786;2023-12-29T00:05:05;100060.31;;;19.04;40.84
53246;BME280;39569;51.090;-1.786;2023-12-29T00:07:32;100050.88;;;18.90;40.43
53246;BME280;39569;51.090;-1.786;2023-12-29T00:09:58;100058.44;;;19.21;40.14
53246;BME280;39569;51.090;-1.786;2023-12-29T00:12:25;100059.59;;;18.36;41.69
53246;BME280;39569;51.090;-1.786;2023-12-29T00:14:53;100058.00;;;20.01;39.39
53246;BME280;39569;51.090;-1.786;2023-12-29T00:17:20;100067.84;;;18.86;41.02
53246;BME280;39569;51.090;-1.786;2023-12-29T00:19:46;100071.56;;;18.68;42.26
53246;BME280;39569;51.090;-1.786;2023-12-29T00:22:13;100064.56;;;19.67;40.35
53246;BME280;39569;51.090;-1.786;2023-12-29T00:24:40;100065.78;;;19.76;39.94
53246;BME280;39569;51.090;-1.786;2023-12-29T00:27:07;100060.50;;;19.86;39.98
53246;BME280;39569;51.090;-1.786;2023-12-29T00:29:33;100067.94;;;19.07;41.29
53246;BME280;39569;51.090;-1.786;2023-12-29T00:32:01;100064.28;;;18.40;43.06
53246;BME280;39569;51.090;-1.786;2023-12-29T00:34:28;100066.91;;;19.08;42.54
53246;BME280;39569;51.090;-1.786;2023-12-29T00:36:54;100083.31;;;19.51;41.21
53246;BME280;39569;51.090;-1.786;2023-12-29T00:39:21;100083.88;;;19.20;41.58
53246;BME280;39569;51.090;-1.786;2023-12-29T00:41:54;100082.47;;;18.56;43.39
53246;BME280;39569;51.090;-1.786;2023-12-29T00:44:22;100064.88;;;19.70;40.99
53246;BME280;39569;51.090;-1.786;2023-12-29T00:46:49;100061.94;;;18.89;42.33
53246;BME280;39569;51.090;-1.786;2023-12-29T00:49:17;100072.78;;;19.55;41.17
53246;BME280;39569;51.090;-1.786;2023-12-29T00:51:43;100060.97;;;19.28;41.88
53246;BME280;39569;51.090;-1.786;2023-12-29T00:54:10;100068.72;;;19.52;41.46
53246;BME280;39569;51.090;-1.786;2023-12-29T00:56:37;100058.78;;;19.41;41.87
53246;BME280;39569;51.090;-1.786;2023-12-29T00:59:04;100051.63;;;20.12;40.28
53246;BME280;39569;51.090;-1.786;2023-12-29T01:01:33;100041.41;;;20.19;40.53
53246;BME280;39569;51.090;-1.786;2023-12-29T01:04:00;100048.56;;;19.65;41.45
53246;BME280;39569;51.090;-1.786;2023-12-29T01:06:28;100045.88;;;19.48;42.30
53246;BME280;39569;51.090;-1.786;2023-12-29T01:08:55;100042.28;;;19.10;42.77
53246;BME280;39569;51.090;-1.786;2023-12-29T01:11:22;100045.31;;;19.13;42.50
53246;BME280;39569;51.090;-1.786;2023-12-29T01:13:49;100043.06;;;18.21;45.00
53246;BME280;39569;51.090;-1.786;2023-12-29T01:16:15;100037.31;;;18.74;43.88
53246;BME280;39569;51.090;-1.786;2023-12-29T01:18:42;100028.91;;;19.53;42.21
53246;BME280;39569;51.090;-1.786;2023-12-29T01:21:09;100028.91;;;19.53;42.27
53246;BME280;39569;51.090;-1.786;2023-12-29T01:23:37;100026.38;;;20.33;41.11
53246;BME280;39569;51.090;-1.786;2023-12-29T01:26:03;100030.88;;;18.91;42.96
53246;BME280;39569;51.090;-1.786;2023-12-29T01:28:30;100024.22;;;18.82;43.75
53246;BME280;39569;51.090;-1.786;2023-12-29T01:30:57;100028.88;;;18.70;43.93
53246;BME280;39569;51.090;-1.786;2023-12-29T01:33:23;100009.47;;;19.39;42.48
53246;BME280;39569;51.090;-1.786;2023-12-29T01:35:50;100020.50;;;18.27;44.17
53246;BME280;39569;51.090;-1.786;2023-12-29T01:38:17;100003.00;;;19.84;41.87
53246;BME280;39569;51.090;-1.786;2023-12-29T01:40:45;100003.47;;;19.97;41.37
53246;BME280;39569;51.090;-1.786;2023-12-29T01:43:12;100004.72;;;18.80;43.64
53246;BME280;39569;51.090;-1.786;2023-12-29T01:45:39;100005.66;;;18.57;44.38
53246;BME280;39569;51.090;-1.786;2023-12-29T01:48:07;99995.38;;;20.02;41.82
53246;BME280;39569;51.090;-1.786;2023-12-29T01:50:35;99993.06;;;19.89;42.10
53246;BME280;39569;51.090;-1.786;2023-12-29T01:53:03;99988.94;;;19.87;42.21
53246;BME280;39569;51.090;-1.786;2023-12-29T01:55:31;99992.03;;;19.95;41.62
53246;BME280;39569;51.090;-1.786;2023-12-29T01:58:00;99998.19;;;19.47;42.74
53246;BME280;39569;51.090;-1.786;2023-12-29T02:00:28;100005.75;;;18.96;43.81
53246;BME280;39569;51.090;-1.786;2023-12-29T02:02:55;100002.31;;;19.17;43.54
53246;BME280;39569;51.090;-1.786;2023-12-29T02:05:23;100006.28;;;19.64;42.76
53246;BME280;39569;51.090;-1.786;2023-12-29T02:07:51;100006.88;;;20.14;41.91
53246;BME280;39569;51.090;-1.786;2023-12-29T02:10:18;100008.44;;;20.27;40.96
53246;BME280;39569;51.090;-1.786;2023-12-29T02:12:47;100008.59;;;19.77;42.42
53246;BME280;39569;51.090;-1.786;2023-12-29T02:15:16;99999.63;;;18.67;45.17
53246;BME280;39569;51.090;-1.786;2023-12-29T02:17:45;99995.03;;;19.34;43.81
53246;BME280;39569;51.090;-1.786;2023-12-29T02:20:14;100001.22;;;19.51;43.50
53246;BME280;39569;51.090;-1.786;2023-12-29T02:22:41;99993.22;;;19.83;42.44
53246;BME280;39569;51.090;-1.786;2023-12-29T02:25:09;99983.66;;;19.75;43.03
53246;BME280;39569;51.090;-1.786;2023-12-29T02:27:43;99984.84;;;20.06;41.87
53246;BME280;39569;51.090;-1.786;2023-12-29T02:30:20;99995.38;;;20.02;42.71
53246;BME280;39569;51.090;-1.786;2023-12-29T02:32:49;100006.84;;;19.88;42.96
53246;BME280;39569;51.090;-1.786;2023-12-29T02:35:23;100007.53;;;19.78;43.32
53246;BME280;39569;51.090;-1.786;2023-12-29T02:37:51;100008.84;;;19.76;43.74
53246;BME280;39569;51.090;-1.786;2023-12-29T02:40:20;100003.69;;;19.96;43.66
53246;BME280;39569;51.090;-1.786;2023-12-29T02:42:47;100004.41;;;19.86;43.80
53246;BME280;39569;51.090;-1.786;2023-12-29T02:45:14;100005.06;;;19.98;43.38
53246;BME280;39569;51.090;-1.786;2023-12-29T02:47:41;100012.75;;;19.41;44.98
53246;BME280;39569;51.090;-1.786;2023-12-29T02:50:09;100012.25;;;18.95;46.19
53246;BME280;39569;51.090;-1.786;2023-12-29T02:52:35;100008.94;;;19.26;45.48
53246;BME280;39569;51.090;-1.786;2023-12-29T02:55:02;99998.19;;;19.31;45.47
53246;BME280;39569;51.090;-1.786;2023-12-29T02:57:31;99995.06;;;20.20;43.84
53246;BME280;39569;51.090;-1.786;2023-12-29T02:59:57;99992.13;;;20.53;42.87
53246;BME280;39569;51.090;-1.786;2023-12-29T03:02:24;99986.94;;;19.99;44.08
53246;BME280;39569;51.090;-1.786;2023-12-29T03:04:51;99988.72;;;20.36;43.36
53246;BME280;39569;51.090;-1.786;2023-12-29T03:07:18;99978.69;;;19.67;44.36
53246;BME280;39569;51.090;-1.786;2023-12-29T03:09:44;99974.03;;;20.32;43.08
53246;BME280;39569;51.090;-1.786;2023-12-29T03:12:11;99966.16;;;20.09;43.84
53246;BME280;39569;51.090;-1.786;2023-12-29T03:14:39;99955.41;;;20.41;44.10
53246;BME280;39569;51.090;-1.786;2023-12-29T03:17:06;99968.47;;;20.17;43.76
53246;BME280;39569;51.090;-1.786;2023-12-29T03:19:33;99956.34;;;19.22;45.65
53246;BME280;39569;51.090;-1.786;2023-12-29T03:21:59;99952.38;;;19.89;44.10
53246;BME280;39569;51.090;-1.786;2023-12-29T03:24:26;99933.38;;;19.63;44.71
53246;BME280;39569;51.090;-1.786;2023-12-29T03:26:53;99947.59;;;21.18;41.60
53246;BME280;39569;51.090;-1.786;2023-12-29T03:29:19;99936.31;;;20.63;42.04
53246;BME280;39569;51.090;-1.786;2023-12-29T03:31:48;99948.03;;;21.41;40.90
53246;BME280;39569;51.090;-1.786;2023-12-29T03:34:14;99948.34;;;20.72;42.28
53246;BME280;39569;51.090;-1.786;2023-12-29T03:36:41;99949.84;;;20.89;41.66
53246;BME280;39569;51.090;-1.786;2023-12-29T03:39:08;99935.97;;;20.86;41.98
53246;BME280;39569;51.090;-1.786;2023-12-29T03:41:34;99939.38;;;20.39;43.13
53246;BME280;39569;51.090;-1.786;2023-12-29T03:44:01;99939.28;;;20.03;43.52
53246;BME280;39569;51.090;-1.786;2023-12-29T03:46:28;99944.88;;;21.13;41.66
53246;BME280;39569;51.090;-1.786;2023-12-29T03:48:56;99951.22;;;21.28;41.70
53246;BME280;39569;51.090;-1.786;2023-12-29T03:51:23;99945.38;;;19.72;43.92
53246;BME280;39569;51.090;-1.786;2023-12-29T03:53:50;99944.34;;;19.73;44.38
53246;BME280;39569;51.090;-1.786;2023-12-29T03:56:18;99934.19;;;21.01;42.07
53246;BME280;39569;51.090;-1.786;2023-12-29T03:58:45;99936.16;;;21.11;41.43
53246;BME280;39569;51.090;-1.786;2023-12-29T04:01:13;99931.97;;;20.98;42.10
53246;BME280;39569;51.090;-1.786;2023-12-29T04:03:40;99946.34;;;20.09;43.43
53246;BME280;39569;51.090;-1.786;2023-12-29T04:06:09;99944.13;;;19.36;45.28
53246;BME280;39569;51.090;-1.786;2023-12-29T04:08:36;99952.47;;;18.80;45.80
53246;BME280;39569;51.090;-1.786;2023-12-29T04:11:04;99941.13;;;19.54;44.95
53246;BME280;39569;51.090;-1.786;2023-12-29T04:13:31;99938.00;;;19.89;44.22
53246;BME280;39569;51.090;-1.786;2023-12-29T04:15:58;99936.75;;;20.81;41.55
53246;BME280;39569;51.090;-1.786;2023-12-29T04:18:25;99929.13;;;19.93;43.42
53246;BME280;39569;51.090;-1.786;2023-12-29T04:20:51;99929.16;;;19.98;43.19
53246;BME280;39569;51.090;-1.786;2023-12-29T04:23:20;99936.00;;;20.27;43.22
53246;BME280;39569;51.090;-1.786;2023-12-29T04:25:46;99926.69;;;19.92;43.32
53246;BME280;39569;51.090;-1.786;2023-12-29T04:28:13;99932.41;;;19.95;42.82
53246;BME280;39569;51.090;-1.786;2023-12-29T04:30:40;99940.94;;;19.82;43.91
53246;BME280;39569;51.090;-1.786;2023-12-29T04:33:06;99939.03;;;20.63;41.98
53246;BME280;39569;51.090;-1.786;2023-12-29T04:35:33;99940.56;;;20.22;42.52
53246;BME280;39569;51.090;-1.786;2023-12-29T04:38:00;99931.72;;;19.83;43.47
53246;BME280;39569;51.090;-1.786;2023-12-29T04:40:28;99932.22;;;19.80;44.05
53246;BME280;39569;51.090;-1.786;2023-12-29T04:42:54;99933.28;;;20.54;42.04
53246;BME280;39569;51.090;-1.786;2023-12-29T04:45:21;99928.59;;;19.70;43.51
53246;BME280;39569;51.090;-1.786;2023-12-29T04:47:48;99920.75;;;19.51;44.03
53246;BME280;39569;51.090;-1.786;2023-12-29T04:50:15;99932.59;;;19.07;44.65
53246;BME280;39569;51.090;-1.786;2023-12-29T04:52:41;99937.19;;;18.90;45.42
53246;BME280;39569;51.090;-1.786;2023-12-29T04:55:08;99954.75;;;18.10;46.44
53246;BME280;39569;51.090;-1.786;2023-12-29T04:57:36;99937.19;;;19.23;44.94
53246;BME280;39569;51.090;-1.786;2023-12-29T05:00:03;99936.78;;;19.53;44.15
53246;BME280;39569;51.090;-1.786;2023-12-29T05:02:30;99951.53;;;19.07;44.30
53246;BME280;39569;51.090;-1.786;2023-12-29T05:04:57;99943.41;;;19.62;42.85
53246;BME280;39569;51.090;-1.786;2023-12-29T05:07:24;99953.38;;;18.85;44.73
53246;BME280;39569;51.090;-1.786;2023-12-29T05:09:51;99956.28;;;18.34;46.08
53246;BME280;39569;51.090;-1.786;2023-12-29T05:12:18;99958.81;;;19.83;42.83
53246;BME280;39569;51.090;-1.786;2023-12-29T05:14:46;99950.41;;;20.06;42.58
53246;BME280;39569;51.090;-1.786;2023-12-29T05:17:12;99961.91;;;19.70;43.13
53246;BME280;39569;51.090;-1.786;2023-12-29T05:19:40;99962.41;;;19.67;42.32
53246;BME280;39569;51.090;-1.786;2023-12-29T05:22:06;99960.56;;;19.94;42.25
53246;BME280;39569;51.090;-1.786;2023-12-29T05:24:33;99965.41;;;19.11;43.95
53246;BME280;39569;51.090;-1.786;2023-12-29T05:27:00;99968.25;;;19.37;43.78
53246;BME280;39569;51.090;-1.786;2023-12-29T05:29:26;99969.66;;;19.23;43.19
53246;BME280;39569;51.090;-1.786;2023-12-29T05:31:54;99965.00;;;19.79;42.42
53246;BME280;39569;51.090;-1.786;2023-12-29T05:34:21;99968.25;;;19.37;42.88
53246;BME280;39569;51.090;-1.786;2023-12-29T05:36:48;99976.66;;;19.19;43.29
53246;BME280;39569;51.090;-1.786;2023-12-29T05:39:14;99971.88;;;19.26;43.23
53246;BME280;39569;51.090;-1.786;2023-12-29T05:41:41;99979.19;;;18.76;44.42
53246;BME280;39569;51.090;-1.786;2023-12-29T05:44:08;99971.88;;;19.26;43.48
53246;BME280;39569;51.090;-1.786;2023-12-29T05:46:35;99967.81;;;18.91;43.21
53246;BME280;39569;51.090;-1.786;2023-12-29T05:49:03;99975.13;;;19.45;43.43
53246;BME280;39569;51.090;-1.786;2023-12-29T05:51:29;99983.47;;;19.60;42.19
53246;BME280;39569;51.090;-1.786;2023-12-29T05:53:56;99982.03;;;20.17;41.24
53246;BME280;39569;51.090;-1.786;2023-12-29T05:56:23;99990.06;;;18.48;44.39
53246;BME280;39569;51.090;-1.786;2023-12-29T05:58:50;99997.38;;;18.19;44.83
53246;BME280;39569;51.090;-1.786;2023-12-29T06:01:16;99987.66;;;18.96;43.89
53246;BME280;39569;51.090;-1.786;2023-12-29T06:03:43;99994.88;;;18.91;43.84
53246;BME280;39569;51.090;-1.786;2023-12-29T06:06:11;99998.69;;;18.05;45.91
53246;BME280;39569;51.090;-1.786;2023-12-29T06:08:38;99989.94;;;19.04;43.64
53246;BME280;39569;51.090;-1.786;2023-12-29T06:11:05;99995.09;;;18.56;44.24
53246;BME280;39569;51.090;-1.786;2023-12-29T06:13:32;99987.28;;;19.26;43.04
53246;BME280;39569;51.090;-1.786;2023-12-29T06:15:58;99995.22;;;18.49;44.40
53246;BME280;39569;51.090;-1.786;2023-12-29T06:18:25;100000.03;;;19.64;42.38
53246;BME280;39569;51.090;-1.786;2023-12-29T06:20:52;100000.00;;;19.42;42.70
53246;BME280;39569;51.090;-1.786;2023-12-29T06:23:20;99984.66;;;19.91;41.69
53246;BME280;39569;51.090;-1.786;2023-12-29T06:25:47;99988.19;;;20.66;40.14
53246;BME280;39569;51.090;-1.786;2023-12-29T06:28:13;99993.53;;;20.29;40.30
53246;BME280;39569;51.090;-1.786;2023-12-29T06:30:40;99998.63;;;19.23;42.97
53246;BME280;39569;51.090;-1.786;2023-12-29T06:33:07;99999.69;;;20.46;40.39
53246;BME280;39569;51.090;-1.786;2023-12-29T06:35:34;100000.69;;;20.67;39.73
53246;BME280;39569;51.090;-1.786;2023-12-29T06:38:01;99997.63;;;19.89;41.45
53246;BME280;39569;51.090;-1.786;2023-12-29T06:40:29;99999.69;;;18.55;44.72
53246;BME280;39569;51.090;-1.786;2023-12-29T06:42:55;99999.63;;;19.33;43.27
53246;BME280;39569;51.090;-1.786;2023-12-29T06:45:22;100001.75;;;18.65;44.50
53246;BME280;39569;51.090;-1.786;2023-12-29T06:47:49;99999.88;;;18.66;44.83
53246;BME280;39569;51.090;-1.786;2023-12-29T06:50:16;100006.22;;;20.02;41.92
53246;BME280;39569;51.090;-1.786;2023-12-29T06:52:42;99999.69;;;18.55;44.63
53246;BME280;39569;51.090;-1.786;2023-12-29T06:55:09;100005.03;;;19.17;44.18
53246;BME280;39569;51.090;-1.786;2023-12-29T06:57:37;99995.72;;;19.46;43.53
53246;BME280;39569;51.090;-1.786;2023-12-29T07:00:05;99997.34;;;19.85;42.41
53246;BME280;39569;51.090;-1.786;2023-12-29T07:02:32;99999.72;;;19.60;42.86
53246;BME280;39569;51.090;-1.786;2023-12-29T07:04:59;100002.50;;;20.30;41.17
53246;BME280;39569;51.090;-1.786;2023-12-29T07:07:26;99997.06;;;19.27;43.36
53246;BME280;39569;51.090;-1.786;2023-12-29T07:09:53;99998.19;;;20.12;41.62
53246;BME280;39569;51.090;-1.786;2023-12-29T07:12:20;99993.31;;;20.14;41.60
53246;BME280;39569;51.090;-1.786;2023-12-29T07:14:48;99995.97;;;19.44;43.54
53246;BME280;39569;51.090;-1.786;2023-12-29T07:17:15;99996.19;;;19.59;42.58
53246;BME280;39569;51.090;-1.786;2023-12-29T07:19:41;100006.06;;;19.49;43.18
53246;BME280;39569;51.090;-1.786;2023-12-29T07:22:08;100007.47;;;18.52;45.19
53246;BME280;39569;51.090;-1.786;2023-12-29T07:24:35;100010.56;;;20.03;41.95
53246;BME280;39569;51.090;-1.786;2023-12-29T07:27:02;100010.06;;;19.85;42.39
53246;BME280;39569;51.090;-1.786;2023-12-29T07:29:30;100016.34;;;19.30;43.21
53246;BME280;39569;51.090;-1.786;2023-12-29T07:31:58;100011.25;;;20.37;41.51
53246;BME280;39569;51.090;-1.786;2023-12-29T07:34:24;100004.84;;;20.48;40.83
53246;BME280;39569;51.090;-1.786;2023-12-29T07:36:52;100005.78;;;20.59;40.46
53246;BME280;39569;51.090;-1.786;2023-12-29T07:39:19;100004.69;;;19.68;42.45
53246;BME280;39569;51.090;-1.786;2023-12-29T07:41:46;99999.09;;;20.18;41.60
53246;BME280;39569;51.090;-1.786;2023-12-29T07:44:14;100001.34;;;19.83;42.07
53246;BME280;39569;51.090;-1.786;2023-12-29T07:46:40;100005.91;;;19.99;41.88
53246;BME280;39569;51.090;-1.786;2023-12-29T07:49:09;100009.53;;;20.31;41.40
53246;BME280;39569;51.090;-1.786;2023-12-29T07:51:39;100000.81;;;19.81;42.43
53246;BME280;39569;51.090;-1.786;2023-12-29T07:54:06;100010.31;;;19.83;42.15
53246;BME280;39569;51.090;-1.786;2023-12-29T07:56:32;100006.31;;;19.47;42.95
53246;BME280;39569;51.090;-1.786;2023-12-29T07:58:59;100014.47;;;19.91;42.22
53246;BME280;39569;51.090;-1.786;2023-12-29T08:01:26;100006.69;;;20.42;40.78
53246;BME280;39569;51.090;-1.786;2023-12-29T08:03:53;100013.81;;;20.48;40.72
53246;BME280;39569;51.090;-1.786;2023-12-29T08:06:21;100011.53;;;20.40;40.99
53246;BME280;39569;51.090;-1.786;2023-12-29T08:08:48;100008.16;;;20.55;40.47
53246;BME280;39569;51.090;-1.786;2023-12-29T08:11:15;100006.13;;;20.40;40.64
53246;BME280;39569;51.090;-1.786;2023-12-29T08:13:43;100012.00;;;20.59;40.58
53246;BME280;39569;51.090;-1.786;2023-12-29T08:16:10;100015.84;;;20.15;40.88
53246;BME280;39569;51.090;-1.786;2023-12-29T08:18:37;100017.88;;;20.03;41.20
53246;BME280;39569;51.090;-1.786;2023-12-29T08:21:04;100024.84;;;20.42;40.67
53246;BME280;39569;51.090;-1.786;2023-12-29T08:23:32;100020.06;;;20.49;40.60
53246;BME280;39569;51.090;-1.786;2023-12-29T08:25:58;100006.28;;;20.29;40.87
53246;BME280;39569;51.090;-1.786;2023-12-29T08:28:25;100007.22;;;20.18;41.13
53246;BME280;39569;51.090;-1.786;2023-12-29T08:30:52;100003.81;;;20.06;41.35
53246;BME280;39569;51.090;-1.786;2023-12-29T08:33:19;100009.00;;;20.29;41.08
53246;BME280;39569;51.090;-1.786;2023-12-29T08:35:46;100003.56;;;19.64;42.21
53246;BME280;39569;51.090;-1.786;2023-12-29T08:38:12;100006.22;;;20.02;41.73
53246;BME280;39569;51.090;-1.786;2023-12-29T08:40:41;100018.66;;;19.77;42.52
53246;BME280;39569;51.090;-1.786;2023-12-29T08:43:08;100009.38;;;19.73;42.50
53246;BME280;39569;51.090;-1.786;2023-12-29T08:45:35;100010.03;;;19.41;43.36
53246;BME280;39569;51.090;-1.786;2023-12-29T08:48:02;100011.19;;;19.89;42.48
53246;BME280;39569;51.090;-1.786;2023-12-29T08:50:29;100012.78;;;20.28;41.41
53246;BME280;39569;51.090;-1.786;2023-12-29T08:52:56;100011.91;;;20.22;41.75
53246;BME280;39569;51.090;-1.786;2023-12-29T08:55:23;100016.31;;;19.85;42.90
53246;BME280;39569;51.090;-1.786;2023-12-29T08:57:51;100015.31;;;20.66;41.77
53246;BME280;39569;51.090;-1.786;2023-12-29T09:00:17;100019.56;;;20.09;42.41
53246;BME280;39569;51.090;-1.786;2023-12-29T09:02:44;100018.94;;;20.45;42.04
53246;BME280;39569;51.090;-1.786;2023-12-29T09:05:12;100032.56;;;21.08;40.93
53246;BME280;39569;51.090;-1.786;2023-12-29T09:07:39;100025.00;;;20.84;41.27
53246;BME280;39569;51.090;-1.786;2023-12-29T09:10:06;100026.16;;;19.91;43.44
53246;BME280;39569;51.090;-1.786;2023-12-29T09:12:36;100030.22;;;19.72;44.57
53246;BME280;39569;51.090;-1.786;2023-12-29T09:15:05;100038.22;;;20.75;42.67
53246;BME280;39569;51.090;-1.786;2023-12-29T09:17:32;100041.84;;;19.89;44.13
53246;BME280;39569;51.090;-1.786;2023-12-29T09:19:59;100035.81;;;20.52;43.31
53246;BME280;39569;51.090;-1.786;2023-12-29T09:22:26;100027.22;;;20.33;43.70
53246;BME280;39569;51.090;-1.786;2023-12-29T09:24:54;100028.59;;;20.63;43.31
53246;BME280;39569;51.090;-1.786;2023-12-29T09:27:20;100030.44;;;20.57;43.48
53246;BME280;39569;51.090;-1.786;2023-12-29T09:29:47;100035.34;;;21.18;42.42
53246;BME280;39569;51.090;-1.786;2023-12-29T09:32:15;100037.53;;;20.36;44.76
53246;BME280;39569;51.090;-1.786;2023-12-29T09:34:42;100035.28;;;20.55;43.97
53246;BME280;39569;51.090;-1.786;2023-12-29T09:37:09;100037.13;;;19.41;46.09
53246;BME280;39569;51.090;-1.786;2023-12-29T09:39:36;100038.56;;;19.87;45.97
53246;BME280;39569;51.090;-1.786;2023-12-29T09:42:03;100034.31;;;20.66;44.28
53246;BME280;39569;51.090;-1.786;2023-12-29T09:44:32;100030.19;;;20.59;44.23
53246;BME280;39569;51.090;-1.786;2023-12-29T09:47:03;100034.00;;;21.58;42.43
53246;BME280;39569;51.090;-1.786;2023-12-29T09:49:38;100046.34;;;21.02;43.95
53246;BME280;39569;51.090;-1.786;2023-12-29T09:52:07;100029.66;;;21.57;42.50
53246;BME280;39569;51.090;-1.786;2023-12-29T09:54:36;100036.16;;;21.56;42.37
53246;BME280;39569;51.090;-1.786;2023-12-29T09:57:04;100037.06;;;21.29;43.06
53246;BME280;39569;51.090;-1.786;2023-12-29T09:59:32;100037.84;;;21.67;42.27
53246;BME280;39569;51.090;-1.786;2023-12-29T10:02:02;100052.16;;;21.10;43.60
53246;BME280;39569;51.090;-1.786;2023-12-29T10:04:29;100051.28;;;21.41;42.42
53246;BME280;39569;51.090;-1.786;2023-12-29T10:07:01;100040.47;;;21.98;41.51
53246;BME280;39569;51.090;-1.786;2023-12-29T10:09:33;100037.38;;;22.46;40.95
53246;BME280;39569;51.090;-1.786;2023-12-29T10:12:02;100048.97;;;21.23;42.56
53246;BME280;39569;51.090;-1.786;2023-12-29T10:14:37;100039.50;;;21.68;42.61
53246;BME280;39569;51.090;-1.786;2023-12-29T10:17:09;100047.13;;;20.97;43.85
53246;BME280;39569;51.090;-1.786;2023-12-29T10:19:40;100038.44;;;19.99;45.16
53246;BME280;39569;51.090;-1.786;2023-12-29T10:22:15;100039.84;;;20.49;44.68
53246;BME280;39569;51.090;-1.786;2023-12-29T10:24:45;100046.53;;;19.55;46.49
53246;BME280;39569;51.090;-1.786;2023-12-29T10:27:12;100042.78;;;19.23;46.66
53246;BME280;39569;51.090;-1.786;2023-12-29T10:29:39;100040.31;;;20.41;44.40
53246;BME280;39569;51.090;-1.786;2023-12-29T10:32:06;100031.84;;;20.16;44.47
53246;BME280;39569;51.090;-1.786;2023-12-29T10:34:34;100028.69;;;20.46;43.26
53246;BME280;39569;51.090;-1.786;2023-12-29T10:37:01;100020.59;;;21.46;41.51
53246;BME280;39569;51.090;-1.786;2023-12-29T10:39:30;100033.28;;;19.97;43.86
53246;BME280;39569;51.090;-1.786;2023-12-29T10:42:04;100025.19;;;21.04;42.62
53246;BME280;39569;51.090;-1.786;2023-12-29T10:44:32;100022.63;;;20.34;43.23
53246;BME280;39569;51.090;-1.786;2023-12-29T10:46:58;100018.44;;;21.90;40.13
53246;BME280;39569;51.090;-1.786;2023-12-29T10:49:25;100011.31;;;23.06;37.79
53246;BME280;39569;51.090;-1.786;2023-12-29T10:51:52;100010.66;;;24.43;35.49
53246;BME280;39569;51.090;-1.786;2023-12-29T10:54:20;100021.34;;;23.61;36.73
53246;BME280;39569;51.090;-1.786;2023-12-29T10:57:00;100010.84;;;22.07;37.85
53246;BME280;39569;51.090;-1.786;2023-12-29T10:59:28;100020.31;;;22.76;37.49
53246;BME280;39569;51.090;-1.786;2023-12-29T11:01:56;100034.47;;;21.08;40.91
53246;BME280;39569;51.090;-1.786;2023-12-29T11:04:23;100022.44;;;21.35;39.89
53246;BME280;39569;51.090;-1.786;2023-12-29T11:06:49;100018.50;;;22.10;38.38
53246;BME280;39569;51.090;-1.786;2023-12-29T11:09:27;100041.28;;;21.10;40.03
53246;BME280;39569;51.090;-1.786;2023-12-29T11:11:54;100037.44;;;20.80;40.08
53246;BME280;39569;51.090;-1.786;2023-12-29T11:14:23;100040.69;;;21.40;39.24
53246;BME280;39569;51.090;-1.786;2023-12-29T11:16:51;100036.94;;;21.98;38.21
53246;BME280;39569;51.090;-1.786;2023-12-29T11:19:19;100041.22;;;21.05;38.90
53246;BME280;39569;51.090;-1.786;2023-12-29T11:21:48;100019.22;;;22.77;37.38
53246;BME280;39569;51.090;-1.786;2023-12-29T11:24:17;100039.38;;;23.57;34.98
53246;BME280;39569;51.090;-1.786;2023-12-29T11:26:44;100040.94;;;22.52;36.95
53246;BME280;39569;51.090;-1.786;2023-12-29T11:29:11;100046.88;;;21.35;39.27
53246;BME280;39569;51.090;-1.786;2023-12-29T11:31:40;100059.31;;;21.63;39.89
53246;BME280;39569;51.090;-1.786;2023-12-29T11:34:09;100053.03;;;20.94;40.12
53246;BME280;39569;51.090;-1.786;2023-12-29T11:36:40;100052.44;;;21.14;39.33
53246;BME280;39569;51.090;-1.786;2023-12-29T11:39:17;100053.94;;;20.73;40.24
53246;BME280;39569;51.090;-1.786;2023-12-29T11:41:54;100063.47;;;20.06;41.89
53246;BME280;39569;51.090;-1.786;2023-12-29T11:44:27;100064.44;;;20.65;40.78
53246;BME280;39569;51.090;-1.786;2023-12-29T11:46:56;100059.19;;;19.72;42.81
53246;BME280;39569;51.090;-1.786;2023-12-29T11:49:23;100053.53;;;19.35;43.11
53246;BME280;39569;51.090;-1.786;2023-12-29T11:51:50;100060.84;;;19.34;43.71
53246;BME280;39569;51.090;-1.786;2023-12-29T11:54:22;100055.63;;;21.06;40.14
53246;BME280;39569;51.090;-1.786;2023-12-29T11:56:49;100051.84;;;21.43;40.01
53246;BME280;39569;51.090;-1.786;2023-12-29T11:59:17;100040.44;;;19.87;42.68
53246;BME280;39569;51.090;-1.786;2023-12-29T12:01:45;100045.22;;;19.80;42.52
53246;BME280;39569;51.090;-1.786;2023-12-29T12:04:35;100056.41;;;20.05;42.71
53246;BME280;39569;51.090;-1.786;2023-12-29T12:07:03;100052.50;;;19.57;43.47
53246;BME280;39569;51.090;-1.786;2023-12-29T12:09:31;100049.38;;;19.66;42.47
53246;BME280;39569;51.090;-1.786;2023-12-29T12:12:00;100033.94;;;20.31;41.49
53246;BME280;39569;51.090;-1.786;2023-12-29T12:14:47;100035.84;;;20.09;42.02
53246;BME280;39569;51.090;-1.786;2023-12-29T12:17:30;100035.78;;;19.27;43.53
53246;BME280;39569;51.090;-1.786;2023-12-29T12:20:02;100032.97;;;19.55;43.59
53246;BME280;39569;51.090;-1.786;2023-12-29T12:22:31;100028.66;;;19.38;44.15
53246;BME280;39569;51.090;-1.786;2023-12-29T12:24:58;100027.97;;;19.31;43.84
53246;BME280;39569;51.090;-1.786;2023-12-29T12:27:26;100011.00;;;19.19;44.08
53246;BME280;39569;51.090;-1.786;2023-12-29T12:29:56;100020.34;;;19.28;43.40
53246;BME280;39569;51.090;-1.786;2023-12-29T12:32:25;100010.41;;;20.90;41.33
53246;BME280;39569;51.090;-1.786;2023-12-29T12:34:52;100000.34;;;21.69;39.10
53246;BME280;39569;51.090;-1.786;2023-12-29T12:37:20;99999.53;;;19.67;42.38
53246;BME280;39569;51.090;-1.786;2023-12-29T12:39:47;100019.00;;;19.85;42.40
53246;BME280;39569;51.090;-1.786;2023-12-29T12:42:15;100014.63;;;20.49;40.65
53246;BME280;39569;51.090;-1.786;2023-12-29T12:44:47;100014.16;;;20.30;41.27